KHPN/HPN METAR and TAF weather

Enter ICAO airport designator
Station Type Date Time Source
KHPN METAR 2019/06/16 20:33 UTC NOAA

KHPN 162033Z 21003KT 5SM HZ FEW032 BKN042 BKN060 22/19 A2981 RMK AO2 DZB05E21RAB21E31 P0001 T02220194


Station Type Date Time Source
KHPN Decoded METAR 2019/06/16 20:33 UTC NOAA

WHITE PLAINS WESTCHESTER, NY, United States (KHPN) 41-04N 073-42W 121M
Jun 16, 2019 - 04:33 PM EDT / 2019.06.16 2033 UTC
Wind: from the SSW (210 degrees) at 3 MPH (3 KT):0
Visibility: 5 mile(s):0
Sky conditions: mostly cloudy
Weather: haze
Precipitation last hour: 0.01 inches
Temperature: 72.0 F (22.2 C)
Dew Point: 66.9 F (19.4 C)
Relative Humidity: 84%
Pressure (altimeter): 29.81 in. Hg (1009 hPa)
ob: KHPN 162033Z 21003KT 5SM HZ FEW032 BKN042 BKN060 22/19 A2981 RMK AO2 DZB05E21RAB21E31 P0001 T02220194
cycle: 20

Station Type Date Time Source
KHPN TAF 2019/06/16 19:06 UTC NOAA

TAF
AMD KHPN 161904Z 1619/1718 16007KT P6SM SCT050 BKN120
FM162200 23006KT 5SM -SHRA BR BKN040
FM170000 27006KT P6SM VCSH BKN040
FM170200 30005KT P6SM SCT040 BKN100
FM171100 35005KT P6SM SCT040 BKN100
AMD NOT SKED

Example: see airport list